Time;durP1;ratioP1;P1;durP2;ratioP2;P2;SDS_P1;SDS_P2;PMS_P1;PMS_P2;Temp;Humidity;BMP_temperature;BMP_pressure;BME280_temperature;BME280_humidity;BME280_pressure;Samples;Min_cycle;Max_cycle;Signal;HPM_P1;HPM_P2
2023/08/29 00:00:02;;;;;;;3.75;1.58;;;19.00;76.00;;;;;;2256086;56;21013;-69
2023/08/29 00:02:31;;;;;;;3.65;1.77;;;19.10;76.00;;;;;;2256889;56;21842;-71
2023/08/29 00:04:59;;;;;;;3.30;1.80;;;19.10;76.00;;;;;;2482976;55;21705;-71
2023/08/29 00:07:25;;;;;;;4.05;1.50;;;19.10;75.90;;;;;;2450443;55;20944;-71
2023/08/29 00:09:52;;;;;;;3.28;1.77;;;19.00;75.90;;;;;;2253090;56;20982;-70
2023/08/29 00:12:20;;;;;;;2.60;1.20;;;19.00;75.90;;;;;;2483768;55;21052;-70
2023/08/29 00:14:46;;;;;;;2.30;1.50;;;19.00;75.80;;;;;;2484073;55;20935;-71
2023/08/29 00:17:16;;;;;;;2.83;1.55;;;19.00;76.60;;;;;;2257852;56;21090;-70
2023/08/29 00:19:42;;;;;;;2.62;1.58;;;19.00;75.90;;;;;;2456682;55;21032;-71
2023/08/29 00:22:09;;;;;;;3.00;1.60;;;19.00;75.90;;;;;;2510877;55;20951;-72
2023/08/29 00:24:35;;;;;;;3.33;1.75;;;19.00;76.00;;;;;;2511113;55;21802;-72
2023/08/29 00:27:02;;;;;;;3.15;1.83;;;19.00;76.00;;;;;;2510132;55;20991;-70
2023/08/29 00:29:29;;;;;;;3.00;1.70;;;19.00;76.10;;;;;;2511101;55;21762;-72
2023/08/29 00:31:55;;;;;;;2.55;1.40;;;19.00;76.10;;;;;;2481793;55;21329;-71
2023/08/29 00:34:22;;;;;;;2.85;1.60;;;19.00;76.00;;;;;;2483208;55;21022;-70
2023/08/29 00:36:49;;;;;;;3.15;1.85;;;19.00;76.00;;;;;;2479133;55;21052;-71
2023/08/29 00:39:15;;;;;;;2.92;1.90;;;19.00;76.00;;;;;;2254022;56;21009;-71
2023/08/29 00:41:45;;;;;;;3.75;1.90;;;19.00;76.00;;;;;;2255477;56;20944;-69
2023/08/29 00:44:12;;;;;;;2.47;1.35;;;19.00;76.00;;;;;;2257650;56;20974;-69
2023/08/29 00:46:38;;;;;;;3.67;1.80;;;19.10;76.10;;;;;;2261224;56;21001;-70
2023/08/29 00:49:05;;;;;;;3.42;1.62;;;19.00;75.90;;;;;;2482779;55;21417;-70
2023/08/29 00:51:31;;;;;;;3.20;2.10;;;19.10;76.10;;;;;;2258067;56;22188;-70
2023/08/29 00:53:58;;;;;;;3.83;1.92;;;19.00;76.00;;;;;;2483548;55;21767;-70
2023/08/29 00:56:24;;;;;;;3.35;1.92;;;19.00;76.10;;;;;;2254332;56;20947;-72
2023/08/29 00:58:52;;;;;;;5.07;2.42;;;19.10;76.20;;;;;;2489284;55;20986;-70
2023/08/29 01:01:21;;;;;;;3.58;1.67;;;19.10;76.20;;;;;;2483779;55;21017;-71
2023/08/29 01:03:49;;;;;;;4.15;1.70;;;19.10;76.10;;;;;;2483051;55;21009;-71
2023/08/29 01:06:15;;;;;;;3.25;1.85;;;19.10;76.20;;;;;;2261519;56;20941;-70
2023/08/29 01:08:43;;;;;;;2.28;1.25;;;19.00;76.20;;;;;;2254491;56;21034;-69
2023/08/29 01:11:16;;;;;;;2.50;1.50;;;19.00;76.20;;;;;;2252740;56;21037;-70
2023/08/29 01:13:47;;;;;;;2.67;1.45;;;19.10;76.10;;;;;;2482857;55;21001;-69
2023/08/29 01:16:14;;;;;;;4.53;1.60;;;19.10;76.10;;;;;;2479161;55;21747;-71
2023/08/29 01:18:41;;;;;;;3.42;1.80;;;19.10;76.20;;;;;;2483155;55;21006;-70
2023/08/29 01:21:46;;;;;;;3.33;1.60;;;19.10;76.20;;;;;;2483257;55;20964;-72
2023/08/29 01:24:27;;;;;;;2.40;1.30;;;19.20;75.20;;;;;;2282281;55;20949;-70
2023/08/29 01:26:53;;;;;;;2.60;1.35;;;19.10;75.70;;;;;;2520495;55;21431;-71
2023/08/29 01:29:20;;;;;;;3.60;1.65;;;19.10;76.10;;;;;;2287693;55;21396;-71
2023/08/29 01:31:46;;;;;;;2.90;1.40;;;19.10;76.10;;;;;;2521792;55;20950;-71
2023/08/29 01:34:16;;;;;;;2.20;1.20;;;19.10;76.20;;;;;;2518141;54;21445;-70
2023/08/29 01:36:47;;;;;;;2.58;1.40;;;19.10;76.20;;;;;;2516761;54;20979;-71
2023/08/29 01:39:14;;;;;;;2.03;1.12;;;19.10;76.10;;;;;;2286349;56;21411;-70
2023/08/29 01:41:40;;;;;;;3.85;1.35;;;19.10;76.10;;;;;;2520235;55;21408;-72
2023/08/29 01:44:10;;;;;;;2.20;1.20;;;19.10;76.10;;;;;;2520552;55;20994;-71
2023/08/29 01:46:37;;;;;;;7.62;1.40;;;19.10;76.00;;;;;;2521368;55;21030;-71
2023/08/29 01:49:06;;;;;;;2.67;1.52;;;19.10;76.10;;;;;;2521055;55;20962;-69
2023/08/29 01:51:32;;;;;;;3.17;1.75;;;19.10;75.90;;;;;;2287998;55;21049;-70
2023/08/29 01:53:59;;;;;;;3.75;1.67;;;19.10;76.10;;;;;;2520456;55;20940;-71
2023/08/29 01:56:27;;;;;;;2.87;1.70;;;19.10;76.10;;;;;;2517882;54;20953;-71
2023/08/29 01:58:53;;;;;;;3.35;2.00;;;19.00;76.00;;;;;;2519197;55;20954;-70
2023/08/29 02:01:20;;;;;;;3.15;2.08;;;19.10;76.20;;;;;;2522146;55;21400;-69
2023/08/29 02:03:51;;;;;;;3.67;2.53;;;19.10;76.20;;;;;;2290254;55;21007;-70
2023/08/29 02:06:18;;;;;;;3.20;1.90;;;19.10;76.10;;;;;;2276246;56;20971;-70
2023/08/29 02:08:44;;;;;;;2.90;2.03;;;19.10;76.30;;;;;;2273960;55;21020;-69
2023/08/29 02:11:11;;;;;;;2.97;1.80;;;19.10;76.30;;;;;;2519853;55;22473;-70
2023/08/29 02:13:37;;;;;;;3.15;2.25;;;19.10;76.30;;;;;;2522103;55;20958;-70
2023/08/29 02:16:08;;;;;;;4.28;1.85;;;19.00;76.00;;;;;;2522270;55;20938;-69
2023/08/29 02:18:34;;;;;;;3.33;1.95;;;19.10;76.00;;;;;;2522391;55;21486;-68
2023/08/29 02:21:02;;;;;;;3.72;1.90;;;19.10;76.10;;;;;;2287281;55;21044;-70
2023/08/29 02:23:29;;;;;;;3.00;1.87;;;19.00;75.90;;;;;;2288314;55;20934;-68
2023/08/29 02:26:05;;;;;;;2.87;1.83;;;19.00;76.00;;;;;;2521211;55;21049;-68
2023/08/29 02:28:36;;;;;;;3.62;2.00;;;19.00;75.70;;;;;;2520256;55;20942;-70
2023/08/29 02:31:06;;;;;;;3.10;1.90;;;19.00;75.90;;;;;;2286910;55;21037;-68
2023/08/29 02:33:33;;;;;;;2.97;1.83;;;19.00;76.00;;;;;;2287937;55;21058;-68
2023/08/29 02:35:59;;;;;;;3.97;2.15;;;19.00;76.10;;;;;;2290762;55;20954;-68
2023/08/29 02:38:26;;;;;;;4.12;2.28;;;19.00;76.20;;;;;;2515895;54;20935;-69
2023/08/29 02:40:53;;;;;;;3.47;2.47;;;19.00;76.20;;;;;;2287217;55;20982;-69
2023/08/29 02:43:19;;;;;;;4.28;2.40;;;19.00;76.20;;;;;;2288654;55;21012;-71
2023/08/29 02:45:45;;;;;;;4.80;2.50;;;19.00;76.20;;;;;;2284366;56;20931;-69
2023/08/29 02:48:12;;;;;;;3.22;2.15;;;19.00;76.20;;;;;;2521389;55;20955;-69
2023/08/29 02:50:39;;;;;;;3.15;1.87;;;19.00;76.20;;;;;;2520737;55;20957;-68
2023/08/29 02:53:05;;;;;;;4.00;2.25;;;19.00;76.20;;;;;;2520455;55;21030;-68
2023/08/29 02:55:32;;;;;;;3.40;2.20;;;19.00;76.20;;;;;;2520988;55;21074;-68
2023/08/29 02:57:59;;;;;;;4.25;2.05;;;19.00;76.20;;;;;;2521429;55;20991;-68
2023/08/29 03:00:27;;;;;;;3.42;1.70;;;19.00;76.30;;;;;;2521531;55;20978;-68
2023/08/29 03:02:53;;;;;;;3.75;2.25;;;18.90;76.10;;;;;;2519958;55;20998;-68
2023/08/29 03:05:22;;;;;;;2.90;1.65;;;18.90;76.10;;;;;;2521596;55;20963;-69
2023/08/29 03:07:50;;;;;;;3.42;2.22;;;19.00;76.30;;;;;;2286293;56;21015;-68
2023/08/29 03:10:17;;;;;;;3.33;2.08;;;19.00;76.30;;;;;;2521425;55;20977;-69
2023/08/29 03:12:44;;;;;;;3.67;2.25;;;18.90;76.20;;;;;;2520163;55;20950;-69
2023/08/29 03:15:11;;;;;;;3.65;2.42;;;19.00;76.30;;;;;;2521447;55;21044;-68
2023/08/29 03:17:38;;;;;;;2.92;1.90;;;19.00;76.30;;;;;;2521027;55;21871;-70
2023/08/29 03:20:05;;;;;;;3.10;2.00;;;18.90;76.10;;;;;;2519286;54;20981;-67
2023/08/29 03:22:35;;;;;;;3.10;1.80;;;18.90;76.10;;;;;;2516785;54;20994;-69
2023/08/29 03:25:01;;;;;;;3.30;1.65;;;18.90;76.10;;;;;;2287565;55;21015;-69
2023/08/29 03:27:28;;;;;;;3.35;1.60;;;18.90;76.00;;;;;;2520748;55;20994;-69
2023/08/29 03:29:57;;;;;;;4.00;1.48;;;18.90;75.90;;;;;;2520796;55;20981;-67
2023/08/29 03:32:24;;;;;;;3.62;2.40;;;18.90;75.90;;;;;;2520618;55;21412;-69
2023/08/29 03:34:54;;;;;;;3.45;2.05;;;18.90;76.50;;;;;;2520465;55;20999;-69
2023/08/29 03:37:20;;;;;;;3.72;2.25;;;18.90;75.70;;;;;;2521376;55;21310;-69
2023/08/29 03:39:49;;;;;;;3.35;2.10;;;18.90;75.90;;;;;;2287461;55;20932;-68
2023/08/29 03:42:17;;;;;;;3.62;2.12;;;18.90;76.00;;;;;;2285501;56;21012;-69
2023/08/29 03:44:43;;;;;;;3.58;2.08;;;18.90;76.00;;;;;;2519537;55;21969;-69
2023/08/29 03:47:11;;;;;;;4.05;2.10;;;18.90;76.00;;;;;;2287232;55;21025;-70
2023/08/29 03:49:40;;;;;;;3.17;2.05;;;18.80;75.90;;;;;;2287485;56;20935;-70
2023/08/29 03:52:07;;;;;;;3.22;1.83;;;18.80;75.80;;;;;;2287090;55;20998;-69
2023/08/29 03:54:33;;;;;;;3.72;1.98;;;18.80;76.00;;;;;;2287351;55;20962;-68
2023/08/29 03:57:00;;;;;;;4.70;2.12;;;18.80;75.90;;;;;;2287158;56;21026;-70
2023/08/29 03:59:26;;;;;;;3.20;1.98;;;18.80;75.80;;;;;;2484363;55;21505;-69
2023/08/29 04:01:53;;;;;;;3.20;2.05;;;18.80;75.80;;;;;;2244085;56;20958;-70
2023/08/29 04:04:19;;;;;;;3.40;2.00;;;18.80;75.80;;;;;;2489911;55;20977;-70
2023/08/29 04:06:46;;;;;;;2.83;1.70;;;18.70;75.70;;;;;;2263263;56;20966;-69
2023/08/29 04:09:12;;;;;;;3.00;2.00;;;18.70;75.70;;;;;;2515040;55;21809;-68
2023/08/29 04:11:39;;;;;;;3.15;1.62;;;18.70;75.80;;;;;;2506518;55;21014;-71
2023/08/29 04:14:05;;;;;;;3.47;2.10;;;18.70;75.80;;;;;;2490585;55;20957;-71
2023/08/29 04:16:32;;;;;;;2.60;1.60;;;18.70;75.70;;;;;;2256521;56;21001;-68
2023/08/29 04:19:00;;;;;;;3.40;2.12;;;18.70;75.80;;;;;;2261566;55;20963;-68
2023/08/29 04:21:27;;;;;;;4.40;2.90;;;18.70;75.80;;;;;;2256172;56;21074;-68
2023/08/29 04:24:02;;;;;;;3.40;2.17;;;18.70;75.80;;;;;;2255401;56;21058;-67
2023/08/29 04:26:29;;;;;;;2.97;1.92;;;18.70;75.80;;;;;;2483356;55;20962;-70
2023/08/29 04:28:56;;;;;;;4.45;2.00;;;18.60;75.60;;;;;;2497225;55;20940;-69
2023/08/29 04:31:22;;;;;;;3.67;2.28;;;18.60;75.60;;;;;;2278211;56;21567;-70
2023/08/29 04:33:49;;;;;;;3.47;2.50;;;18.60;75.60;;;;;;2510522;55;20927;-70
2023/08/29 04:36:16;;;;;;;3.35;2.25;;;18.60;75.50;;;;;;2486932;55;21491;-71
2023/08/29 04:38:45;;;;;;;3.50;2.25;;;18.60;75.40;;;;;;2483387;55;20954;-69
2023/08/29 04:41:11;;;;;;;4.10;2.25;;;18.60;75.50;;;;;;2483668;55;21482;-69
2023/08/29 04:43:39;;;;;;;4.03;2.33;;;18.50;75.50;;;;;;2482519;55;21026;-68
2023/08/29 04:46:08;;;;;;;3.17;1.98;;;18.50;76.20;;;;;;2256211;56;21018;-68
2023/08/29 04:48:38;;;;;;;3.35;2.05;;;18.50;75.40;;;;;;2251553;55;21903;-70
2023/08/29 04:51:04;;;;;;;4.00;2.47;;;18.50;75.60;;;;;;2466402;55;21016;-68
2023/08/29 04:53:32;;;;;;;3.85;2.40;;;18.50;75.60;;;;;;2484240;55;20954;-68
2023/08/29 04:56:00;;;;;;;3.72;2.45;;;18.50;75.60;;;;;;2482844;55;21092;-68
2023/08/29 04:58:26;;;;;;;2.92;1.90;;;18.50;75.70;;;;;;2481937;55;20990;-68
2023/08/29 05:00:53;;;;;;;3.60;2.40;;;18.40;75.60;;;;;;2482624;55;21504;-68
2023/08/29 05:03:20;;;;;;;4.12;2.70;;;18.40;75.60;;;;;;2484064;55;21495;-68
2023/08/29 05:05:46;;;;;;;4.95;2.50;;;18.40;75.60;;;;;;2483351;55;21745;-68
2023/08/29 05:08:12;;;;;;;3.50;2.05;;;18.40;75.60;;;;;;2258185;56;21564;-71
2023/08/29 05:10:40;;;;;;;4.03;1.90;;;18.40;75.70;;;;;;2483007;55;20953;-68
2023/08/29 05:13:09;;;;;;;3.95;2.70;;;18.40;75.70;;;;;;2255867;56;21282;-70
2023/08/29 05:15:36;;;;;;;4.70;2.03;;;18.40;75.70;;;;;;2257004;56;20971;-68
2023/08/29 05:18:05;;;;;;;3.47;2.28;;;18.40;75.70;;;;;;2282092;56;20997;-68
2023/08/29 05:20:35;;;;;;;3.37;2.30;;;18.40;75.70;;;;;;2515021;54;22036;-71
2023/08/29 05:23:01;;;;;;;3.40;2.37;;;18.40;75.80;;;;;;2514244;54;21007;-70
2023/08/29 05:25:28;;;;;;;3.35;2.33;;;18.40;75.80;;;;;;2282239;56;21035;-70
2023/08/29 05:27:54;;;;;;;3.60;2.50;;;18.40;75.90;;;;;;2281558;56;20987;-68
2023/08/29 05:30:21;;;;;;;3.58;2.40;;;18.30;75.80;;;;;;2514786;54;21025;-70
2023/08/29 05:32:47;;;;;;;5.32;2.78;;;18.30;75.90;;;;;;2513668;54;20948;-70
2023/08/29 05:35:14;;;;;;;4.57;2.65;;;18.30;76.00;;;;;;2281962;56;21032;-71
2023/08/29 05:37:41;;;;;;;5.68;3.28;;;18.30;76.00;;;;;;2514741;55;21766;-69
2023/08/29 05:40:08;;;;;;;4.10;3.12;;;18.30;75.90;;;;;;2282180;56;21008;-69
2023/08/29 05:42:34;;;;;;;4.75;3.00;;;18.30;75.90;;;;;;2282197;55;20944;-70
2023/08/29 05:45:02;;;;;;;4.12;2.95;;;18.30;76.00;;;;;;2281847;56;21079;-69
2023/08/29 05:47:28;;;;;;;5.07;3.40;;;18.30;76.00;;;;;;2514414;54;21656;-68
2023/08/29 05:49:54;;;;;;;4.65;3.15;;;18.30;76.00;;;;;;2281113;55;21992;-69
2023/08/29 05:52:24;;;;;;;5.35;3.10;;;18.30;76.00;;;;;;2486233;55;20929;-69
2023/08/29 05:54:50;;;;;;;5.53;3.15;;;18.30;76.00;;;;;;2491405;54;21049;-70
2023/08/29 05:57:16;;;;;;;3.80;2.50;;;18.30;76.10;;;;;;2515227;54;20944;-70
2023/08/29 05:59:43;;;;;;;3.53;2.47;;;18.30;76.10;;;;;;2514714;54;21020;-67
2023/08/29 06:02:09;;;;;;;4.07;2.85;;;18.30;76.10;;;;;;2281847;56;21025;-70
2023/08/29 06:04:37;;;;;;;4.70;3.05;;;18.30;76.10;;;;;;2281840;55;21028;-73
2023/08/29 06:07:05;;;;;;;4.07;2.92;;;18.30;76.10;;;;;;2514511;54;21032;-71
2023/08/29 06:09:34;;;;;;;5.60;2.90;;;18.30;76.10;;;;;;2514872;54;20952;-71
2023/08/29 06:12:01;;;;;;;6.10;3.35;;;18.30;76.20;;;;;;2255427;56;20968;-70
2023/08/29 06:14:27;;;;;;;4.85;2.97;;;18.40;77.10;;;;;;2514805;55;21728;-72
2023/08/29 06:16:54;;;;;;;5.10;3.10;;;18.40;76.40;;;;;;2513988;54;20988;-72
2023/08/29 06:19:21;;;;;;;5.22;3.47;;;18.40;76.40;;;;;;2495197;54;21602;-69
2023/08/29 06:21:49;;;;;;;6.60;3.80;;;18.40;76.40;;;;;;2268482;56;20960;-71
2023/08/29 06:24:19;;;;;;;5.43;3.87;;;18.40;76.40;;;;;;2281982;55;20984;-72
2023/08/29 06:26:45;;;;;;;5.10;3.40;;;18.40;76.30;;;;;;2514910;55;20981;-68
2023/08/29 06:29:11;;;;;;;5.50;3.78;;;18.40;76.30;;;;;;2244532;57;21449;-71
2023/08/29 06:31:40;;;;;;;4.10;3.03;;;18.40;76.30;;;;;;2513889;54;21776;-71
2023/08/29 06:34:08;;;;;;;3.60;2.40;;;18.40;76.30;;;;;;2513271;54;21793;-69
2023/08/29 06:36:35;;;;;;;5.07;3.00;;;18.40;76.30;;;;;;2281728;55;20968;-68
2023/08/29 06:39:02;;;;;;;4.65;3.30;;;18.40;76.40;;;;;;2485030;54;20993;-72
2023/08/29 06:41:28;;;;;;;4.93;2.95;;;18.40;76.30;;;;;;2509641;54;20964;-71
2023/08/29 06:43:55;;;;;;;3.65;2.75;;;18.40;76.40;;;;;;2280621;55;20943;-70
2023/08/29 06:46:30;;;;;;;5.00;3.50;;;18.50;76.50;;;;;;2281550;55;21038;-71
2023/08/29 06:48:57;;;;;;;5.32;3.58;;;18.50;76.40;;;;;;2485465;54;21008;-69
2023/08/29 06:51:24;;;;;;;4.70;3.47;;;18.50;76.60;;;;;;2489640;54;20990;-70
2023/08/29 06:53:53;;;;;;;5.05;3.22;;;18.50;76.60;;;;;;2266222;56;20980;-69
2023/08/29 06:56:19;;;;;;;5.53;3.42;;;18.50;76.50;;;;;;2509943;54;21430;-70
2023/08/29 06:58:46;;;;;;;3.87;2.55;;;18.50;76.60;;;;;;2514790;55;21008;-70
2023/08/29 07:01:14;;;;;;;6.37;3.53;;;18.50;76.60;;;;;;2514878;54;21292;-72
2023/08/29 07:03:41;;;;;;;5.37;3.20;;;18.60;76.80;;;;;;2514587;54;21335;-71
2023/08/29 07:06:07;;;;;;;6.35;4.00;;;18.60;76.80;;;;;;2510050;54;20984;-69
2023/08/29 07:08:37;;;;;;;5.70;3.30;;;18.60;76.80;;;;;;2513806;54;21040;-70
2023/08/29 07:11:04;;;;;;;6.25;3.40;;;18.60;76.70;;;;;;2512909;54;20948;-72
2023/08/29 07:13:32;;;;;;;5.30;3.80;;;18.60;76.60;;;;;;2281699;56;21000;-71
2023/08/29 07:15:58;;;;;;;5.12;3.53;;;18.60;76.40;;;;;;2511022;54;21012;-72
2023/08/29 07:18:26;;;;;;;5.82;4.20;;;18.60;76.50;;;;;;2481668;55;20983;-70
2023/08/29 07:20:53;;;;;;;7.10;4.72;;;18.70;76.60;;;;;;2514020;54;20929;-70
2023/08/29 07:23:19;;;;;;;8.43;4.85;;;18.70;76.60;;;;;;2264762;56;20973;-71
2023/08/29 07:25:47;;;;;;;8.93;5.12;;;18.70;76.60;;;;;;2505803;54;20928;-70
2023/08/29 07:28:17;;;;;;;7.93;4.65;;;18.70;76.60;;;;;;2514718;54;21008;-70
2023/08/29 07:30:45;;;;;;;5.72;3.97;;;18.70;76.60;;;;;;2280824;55;21437;-71
2023/08/29 07:33:16;;;;;;;5.68;4.15;;;18.70;76.60;;;;;;2280975;56;21604;-70
2023/08/29 07:35:43;;;;;;;8.43;5.35;;;18.70;76.60;;;;;;2281136;56;20992;-73
2023/08/29 07:38:10;;;;;;;8.50;5.37;;;18.60;76.60;;;;;;2513952;54;20959;-73
2023/08/29 07:40:36;;;;;;;7.45;4.65;;;18.80;76.80;;;;;;2513482;54;21786;-70
2023/08/29 07:43:05;;;;;;;5.95;4.12;;;18.70;76.70;;;;;;2514144;54;20963;-70
2023/08/29 07:45:32;;;;;;;5.40;3.50;;;18.80;76.80;;;;;;2281467;56;21063;-72
2023/08/29 07:47:58;;;;;;;4.80;3.35;;;18.80;76.80;;;;;;2280997;55;21885;-70
2023/08/29 07:50:28;;;;;;;5.47;4.10;;;18.80;76.80;;;;;;2280834;56;21025;-68
2023/08/29 07:52:54;;;;;;;18.27;11.15;;;18.80;77.40;;;;;;2486961;54;20937;-68
2023/08/29 07:55:22;;;;;;;21.52;13.13;;;18.90;76.90;;;;;;2505724;55;21501;-71
2023/08/29 07:57:48;;;;;;;15.30;8.90;;;18.90;77.00;;;;;;2514199;54;20984;-69
2023/08/29 08:00:17;;;;;;;8.25;5.55;;;18.90;76.90;;;;;;2499960;54;21016;-71
2023/08/29 08:02:48;;;;;;;7.78;5.65;;;18.90;76.80;;;;;;2266465;56;20948;-72
2023/08/29 08:05:15;;;;;;;6.78;4.78;;;18.90;76.90;;;;;;2281641;56;21761;-70
2023/08/29 08:07:43;;;;;;;5.30;3.60;;;19.00;77.10;;;;;;2281474;55;21449;-69
2023/08/29 08:10:12;;;;;;;3.65;2.78;;;19.00;77.10;;;;;;2514195;54;21037;-69
2023/08/29 08:12:39;;;;;;;4.00;2.75;;;19.00;77.00;;;;;;2514985;55;20928;-70
2023/08/29 08:15:06;;;;;;;5.00;3.30;;;19.00;76.90;;;;;;2281886;56;20952;-71
2023/08/29 08:17:35;;;;;;;5.05;3.17;;;19.10;76.90;;;;;;2264734;56;21966;-69
2023/08/29 08:20:06;;;;;;;4.60;2.85;;;19.10;76.80;;;;;;2261695;56;20965;-70
2023/08/29 08:22:33;;;;;;;4.22;2.37;;;19.20;77.00;;;;;;2281562;56;20968;-70
2023/08/29 08:24:59;;;;;;;5.20;3.20;;;19.20;77.00;;;;;;2479384;55;21895;-69
2023/08/29 08:27:25;;;;;;;3.80;2.15;;;19.20;77.00;;;;;;2470387;55;21954;-70
2023/08/29 08:29:52;;;;;;;5.18;2.67;;;19.20;77.10;;;;;;2480645;54;20924;-69
2023/08/29 08:32:18;;;;;;;5.05;2.70;;;19.20;77.10;;;;;;2279557;55;21095;-71
2023/08/29 08:34:44;;;;;;;4.25;2.40;;;19.30;77.30;;;;;;2280986;56;21671;-71
2023/08/29 08:37:12;;;;;;;3.62;2.60;;;19.30;77.30;;;;;;2281450;56;20999;-70
2023/08/29 08:39:38;;;;;;;4.10;2.75;;;19.40;77.50;;;;;;2514035;54;20968;-72
2023/08/29 08:42:05;;;;;;;4.72;2.87;;;19.40;77.40;;;;;;2514459;54;21197;-70
2023/08/29 08:44:35;;;;;;;3.85;2.90;;;19.40;77.50;;;;;;2514200;54;21063;-69
2023/08/29 08:47:02;;;;;;;6.07;3.47;;;19.50;77.40;;;;;;2281625;55;20952;-70
2023/08/29 08:49:29;;;;;;;4.15;2.90;;;19.50;77.60;;;;;;2514988;54;21023;-70
2023/08/29 08:51:56;;;;;;;4.50;3.20;;;19.50;77.60;;;;;;2281680;56;20940;-70
2023/08/29 08:54:24;;;;;;;4.30;3.00;;;19.60;77.60;;;;;;2477956;55;20968;-73
2023/08/29 08:56:51;;;;;;;4.97;3.25;;;19.60;77.60;;;;;;2512657;54;20960;-70
2023/08/29 08:59:17;;;;;;;4.10;2.90;;;19.70;77.50;;;;;;2514845;54;20992;-70
2023/08/29 09:01:45;;;;;;;5.25;3.40;;;19.70;77.40;;;;;;2514176;54;20952;-70
2023/08/29 09:04:11;;;;;;;5.40;3.22;;;19.70;77.40;;;;;;2281776;55;20956;-70
2023/08/29 09:06:38;;;;;;;6.05;3.10;;;19.80;77.50;;;;;;2514721;54;21032;-73
2023/08/29 09:09:17;;;;;;;4.35;3.17;;;19.80;77.60;;;;;;2271213;55;20968;-69
2023/08/29 09:11:43;;;;;;;3.87;3.03;;;19.90;77.10;;;;;;2500511;55;21020;-70
2023/08/29 09:14:10;;;;;;;3.37;2.10;;;19.90;77.60;;;;;;2513505;54;20960;-72
2023/08/29 09:16:37;;;;;;;4.93;3.47;;;19.90;77.50;;;;;;2507425;54;21010;-70
2023/08/29 09:19:06;;;;;;;4.70;3.37;;;20.00;77.50;;;;;;2279873;55;21023;-70
2023/08/29 09:21:35;;;;;;;5.90;3.80;;;20.00;77.20;;;;;;2450318;55;21071;-72
2023/08/29 09:24:04;;;;;;;4.62;3.03;;;20.10;77.00;;;;;;2261112;56;21015;-71
2023/08/29 09:26:33;;;;;;;5.70;2.85;;;20.10;77.30;;;;;;2483399;55;20975;-69
2023/08/29 09:29:00;;;;;;;3.75;2.67;;;20.10;77.20;;;;;;2481768;55;20962;-70
2023/08/29 09:31:26;;;;;;;4.70;2.72;;;20.20;77.30;;;;;;2482337;55;20972;-71
2023/08/29 09:33:52;;;;;;;4.20;3.17;;;20.20;77.30;;;;;;2474719;55;21018;-69
2023/08/29 09:36:19;;;;;;;5.28;3.50;;;20.20;77.30;;;;;;2489810;54;21808;-70
2023/08/29 09:38:47;;;;;;;4.32;2.90;;;20.30;77.30;;;;;;2482949;55;20969;-71
2023/08/29 09:41:14;;;;;;;3.55;2.50;;;20.30;77.10;;;;;;2483497;55;21090;-70
2023/08/29 09:43:48;;;;;;;3.55;2.20;;;20.30;77.10;;;;;;2483142;55;20942;-73
2023/08/29 09:46:20;;;;;;;4.68;2.75;;;20.40;77.00;;;;;;2260545;56;21396;-71
2023/08/29 09:49:05;;;;;;;3.83;2.60;;;20.40;77.00;;;;;;2252545;56;21030;-73
2023/08/29 09:51:33;;;;;;;4.22;2.62;;;20.40;76.50;;;;;;2485847;55;21342;-70
2023/08/29 09:54:03;;;;;;;4.45;2.75;;;20.50;77.30;;;;;;2476700;55;20961;-71
2023/08/29 09:56:29;;;;;;;5.05;2.75;;;20.50;77.10;;;;;;2483388;55;21456;-69
2023/08/29 09:58:56;;;;;;;4.05;3.08;;;20.50;77.10;;;;;;2483283;55;20953;-70
2023/08/29 10:01:23;;;;;;;4.75;2.80;;;20.50;77.10;;;;;;2485983;55;21047;-73
2023/08/29 10:03:50;;;;;;;4.00;3.10;;;20.60;77.10;;;;;;2486013;55;20981;-74
2023/08/29 10:06:16;;;;;;;4.43;2.83;;;20.60;76.90;;;;;;2258711;56;20993;-74
2023/08/29 10:08:50;;;;;;;5.03;3.28;;;20.60;76.80;;;;;;2254776;56;20950;-74
2023/08/29 10:11:20;;;;;;;3.72;2.80;;;20.70;76.70;;;;;;2483572;55;21700;-71
2023/08/29 10:13:46;;;;;;;3.80;2.97;;;20.70;76.60;;;;;;2483211;55;21006;-72
2023/08/29 10:16:13;;;;;;;4.57;2.53;;;20.70;76.90;;;;;;2482224;55;21046;-70
2023/08/29 10:18:41;;;;;;;4.45;3.15;;;20.70;77.00;;;;;;2258575;56;21101;-70
2023/08/29 10:21:10;;;;;;;4.03;3.45;;;20.80;77.10;;;;;;2486693;54;20953;-70
2023/08/29 10:23:37;;;;;;;4.30;3.33;;;20.80;76.90;;;;;;2272226;56;20943;-71
2023/08/29 10:26:04;;;;;;;4.30;3.08;;;20.80;76.60;;;;;;2497273;54;20946;-72
2023/08/29 10:28:30;;;;;;;3.45;2.67;;;20.80;76.50;;;;;;2279112;56;20962;-69
2023/08/29 10:30:59;;;;;;;3.70;2.58;;;20.80;76.40;;;;;;2520017;55;20947;-71
2023/08/29 10:33:25;;;;;;;7.03;3.30;;;20.90;76.60;;;;;;2520667;55;22174;-70
2023/08/29 10:35:52;;;;;;;4.20;2.75;;;20.90;76.80;;;;;;2518744;54;20970;-70
2023/08/29 10:38:18;;;;;;;4.65;3.35;;;20.90;76.90;;;;;;2515924;54;20979;-70
2023/08/29 10:40:46;;;;;;;4.20;2.83;;;21.00;77.00;;;;;;2285996;55;21026;-70
2023/08/29 10:43:21;;;;;;;4.68;2.85;;;21.00;76.90;;;;;;2288836;55;22018;-72
2023/08/29 10:45:56;;;;;;;4.45;3.22;;;21.00;76.20;;;;;;2516834;55;21545;-70
2023/08/29 10:48:57;;;;;;;4.37;2.75;;;21.10;76.40;;;;;;2521366;55;20926;-71
2023/08/29 10:51:25;;;;;;;4.25;3.08;;;21.20;76.00;;;;;;2520241;55;20946;-70
2023/08/29 10:54:05;;;;;;;4.72;3.75;;;21.20;77.00;;;;;;2520047;55;21601;-70
2023/08/29 10:56:42;;;;;;;3.92;3.00;;;21.20;76.30;;;;;;2520969;55;21018;-70
2023/08/29 10:59:32;;;;;;;4.43;3.33;;;21.20;76.00;;;;;;2287574;55;20990;-71
2023/08/29 11:02:32;;;;;;;3.70;2.83;;;21.30;75.70;;;;;;2516098;54;20952;-70
2023/08/29 11:05:33;;;;;;;3.95;2.95;;;21.30;75.40;;;;;;2521391;55;21034;-73
2023/08/29 11:08:35;;;;;;;3.37;2.40;;;21.30;75.40;;;;;;2516237;54;20939;-72
2023/08/29 11:11:23;;;;;;;3.97;2.58;;;21.40;75.70;;;;;;2521037;55;21003;-70
2023/08/29 11:14:06;;;;;;;4.68;2.62;;;21.40;75.70;;;;;;2288844;55;21046;-71
2023/08/29 11:16:37;;;;;;;3.97;2.80;;;21.50;76.10;;;;;;2521690;55;21006;-72
2023/08/29 11:19:13;;;;;;;4.25;2.80;;;21.50;77.00;;;;;;2522176;55;21009;-71
2023/08/29 11:21:44;;;;;;;3.83;2.70;;;21.60;76.80;;;;;;2286124;55;21439;-71
2023/08/29 11:24:10;;;;;;;4.07;2.80;;;21.60;76.80;;;;;;2521900;55;20922;-70
2023/08/29 11:26:46;;;;;;;3.17;2.22;;;21.70;77.10;;;;;;2516322;54;20975;-69
2023/08/29 11:29:13;;;;;;;4.37;2.97;;;21.70;77.00;;;;;;2287399;55;21089;-72
2023/08/29 11:31:40;;;;;;;3.92;2.37;;;21.70;77.00;;;;;;2288707;56;20938;-71
2023/08/29 11:34:17;;;;;;;4.25;2.78;;;21.70;76.80;;;;;;2516430;54;21215;-70
2023/08/29 11:36:47;;;;;;;3.35;2.33;;;21.80;76.10;;;;;;2521558;55;20990;-70
2023/08/29 11:39:19;;;;;;;4.03;3.25;;;21.80;76.40;;;;;;2258879;56;20973;-72
2023/08/29 11:41:46;;;;;;;3.75;2.60;;;21.80;75.90;;;;;;2230790;56;20987;-72
2023/08/29 11:44:14;;;;;;;3.92;3.00;;;21.90;76.40;;;;;;2483866;55;21821;-70
2023/08/29 11:46:43;;;;;;;5.32;2.92;;;21.90;76.20;;;;;;2483398;55;20977;-69
2023/08/29 11:49:15;;;;;;;4.20;2.65;;;21.90;76.10;;;;;;2257355;56;21014;-70
2023/08/29 11:51:43;;;;;;;5.70;3.00;;;21.90;75.90;;;;;;2256463;56;21358;-71
2023/08/29 11:54:46;;;;;;;3.90;2.60;;;22.00;76.10;;;;;;2256440;56;22167;-72
2023/08/29 11:57:13;;;;;;;3.70;2.35;;;22.00;75.00;;;;;;2482843;55;21026;-70
2023/08/29 11:59:44;;;;;;;3.58;2.50;;;22.00;76.20;;;;;;2256362;56;21478;-70
2023/08/29 12:02:21;;;;;;;4.45;2.62;;;22.10;75.80;;;;;;2483842;55;21129;-70
2023/08/29 12:04:47;;;;;;;3.17;2.08;;;22.10;75.30;;;;;;2514605;54;21063;-72
2023/08/29 12:07:17;;;;;;;3.60;2.15;;;22.10;75.90;;;;;;2282450;55;20948;-70
2023/08/29 12:09:45;;;;;;;3.22;2.47;;;22.10;75.60;;;;;;2514161;54;21544;-69
2023/08/29 12:12:29;;;;;;;4.18;3.03;;;22.10;75.90;;;;;;2282299;56;21012;-71
2023/08/29 12:14:56;;;;;;;4.28;3.00;;;22.20;74.70;;;;;;2282101;56;20995;-69
2023/08/29 12:17:32;;;;;;;3.20;2.17;;;22.20;76.00;;;;;;2262784;56;21021;-69
2023/08/29 12:19:59;;;;;;;3.85;2.85;;;22.20;76.10;;;;;;2508778;54;21088;-70
2023/08/29 12:22:29;;;;;;;4.35;2.80;;;22.30;76.10;;;;;;2282094;56;21035;-70
2023/08/29 12:24:58;;;;;;;4.95;2.50;;;22.30;75.70;;;;;;2514715;54;21011;-70
2023/08/29 12:27:24;;;;;;;3.40;2.55;;;22.30;76.20;;;;;;2514431;54;21079;-70
2023/08/29 12:29:50;;;;;;;4.03;2.95;;;22.30;76.10;;;;;;2256298;56;20937;-71
2023/08/29 12:32:21;;;;;;;3.67;2.58;;;22.40;76.10;;;;;;2260927;56;20961;-70
2023/08/29 12:34:51;;;;;;;3.90;2.70;;;22.40;76.10;;;;;;2482985;55;20943;-68
2023/08/29 12:37:18;;;;;;;3.55;2.47;;;22.40;75.30;;;;;;2483589;55;21062;-71
2023/08/29 12:39:45;;;;;;;3.37;2.28;;;22.40;75.60;;;;;;2484050;55;20927;-70
2023/08/29 12:42:13;;;;;;;3.50;2.58;;;22.50;75.60;;;;;;2257311;56;20958;-68
2023/08/29 12:44:40;;;;;;;3.37;2.20;;;22.50;75.50;;;;;;2484495;55;20974;-69
2023/08/29 12:47:07;;;;;;;2.53;1.60;;;22.50;75.40;;;;;;2257079;55;21615;-70
2023/08/29 12:49:33;;;;;;;3.20;2.30;;;22.50;75.50;;;;;;2255123;55;21787;-68
2023/08/29 12:52:00;;;;;;;3.50;2.20;;;22.50;75.30;;;;;;2482641;55;20946;-71